Time;durP1;ratioP1;P1;durP2;ratioP2;P2;SDS_P1;SDS_P2;PMS_P1;PMS_P2;Temp;Humidity;BMP_temperature;BMP_pressure;BME280_temperature;BME280_humidity;BME280_pressure;Samples;Min_cycle;Max_cycle;Signal;HPM_P1;HPM_P2
2022/07/21 05:36:07;;;;;;;15.23;11.30;;;;;;;19.45;100.00;101769.03;6024405;23;20396;-78
2022/07/21 05:38:33;;;;;;;15.83;13.17;;;;;;;19.21;100.00;101735.53;4993123;28;20468;-76
2022/07/21 05:41:02;;;;;;;18.80;12.37;;;;;;;19.29;100.00;101743.34;4986653;28;20452;-77
2022/07/21 05:43:29;;;;;;;19.20;13.50;;;;;;;19.50;100.00;101800.97;4986299;28;20793;-79
2022/07/21 05:45:55;;;;;;;19.50;14.07;;;;;;;19.49;100.00;101804.75;4984986;28;20437;-80
2022/07/21 05:48:21;;;;;;;15.87;14.17;;;;;;;19.64;100.00;101805.97;4983395;28;20460;-78
2022/07/21 05:50:46;;;;;;;17.03;13.80;;;;;;;19.09;100.00;101767.31;4987299;28;20190;-80
2022/07/21 05:53:11;;;;;;;15.17;13.10;;;;;;;19.82;100.00;101806.94;4984680;28;20182;-81
2022/07/21 05:55:37;;;;;;;22.17;11.67;;;;;;;19.36;100.00;101724.19;4987595;28;20727;-80
2022/07/21 05:58:02;;;;;;;17.47;14.83;;;;;;;19.45;100.00;101777.19;4985435;28;20217;-80
2022/07/21 06:00:28;;;;;;;17.50;15.00;;;;;;;19.68;100.00;101814.50;4985033;28;20205;-81
2022/07/21 06:02:53;;;;;;;16.67;12.93;;;;;;;19.76;100.00;101803.28;4983841;28;20198;-80
2022/07/21 06:05:19;;;;;;;17.07;12.90;;;;;;;19.79;100.00;101805.53;4985034;28;20350;-81
2022/07/21 06:07:44;;;;;;;14.30;12.87;;;;;;;19.16;100.00;101768.88;4986270;28;20238;-81
2022/07/21 06:10:10;;;;;;;17.63;14.63;;;;;;;19.04;100.00;101750.88;4987125;28;20217;-78
2022/07/21 06:12:36;;;;;;;15.33;13.63;;;;;;;19.52;100.00;101815.16;4981243;28;20189;-79
2022/07/21 06:15:01;;;;;;;16.70;13.60;;;;;;;19.72;100.00;101814.88;4984117;28;20480;-79
2022/07/21 06:17:31;;;;;;;17.33;12.60;;;;;;;19.59;100.00;101813.19;4993536;23;20243;-64
2022/07/21 06:19:57;;;;;;;13.40;11.23;;;;;;;19.51;100.00;101808.06;4995474;28;20189;-65
2022/07/21 06:22:22;;;;;;;13.70;12.07;;;;;;;19.82;100.00;101829.56;4997521;28;20967;-64
2022/07/21 06:24:48;;;;;;;11.80;10.60;;;;;;;20.08;100.00;101822.78;4997676;28;20451;-66
2022/07/21 06:27:13;;;;;;;14.40;11.57;;;;;;;20.10;100.00;101822.53;5000433;28;20216;-66
2022/07/21 06:29:38;;;;;;;13.40;11.13;;;;;;;19.86;100.00;101832.63;4999596;28;20679;-66
2022/07/21 06:32:04;;;;;;;13.30;10.60;;;;;;;20.02;100.00;101834.63;4998339;28;20653;-65
2022/07/21 06:34:30;;;;;;;14.87;12.40;;;;;;;19.82;100.00;101839.63;4997173;28;20681;-66
2022/07/21 06:36:55;;;;;;;15.53;11.63;;;;;;;19.76;100.00;101803.28;4999941;28;20642;-66
2022/07/21 06:39:21;;;;;;;13.80;12.40;;;;;;;19.63;100.00;101798.84;5000961;28;20200;-65
2022/07/21 06:41:46;;;;;;;15.03;13.53;;;;;;;19.90;100.00;101835.69;5002556;28;20317;-65
2022/07/21 06:44:11;;;;;;;15.00;13.50;;;;;;;20.03;100.00;101841.72;5002619;28;20633;-66
2022/07/21 06:46:37;;;;;;;15.03;13.53;;;;;;;19.76;100.00;101816.88;5000592;28;20216;-65
2022/07/21 06:49:03;;;;;;;19.27;16.20;;;;;;;19.73;100.00;101800.19;4991837;28;20674;-66
2022/07/21 06:51:29;;;;;;;18.17;14.63;;;;;;;19.97;100.00;101839.97;4996540;28;20726;-66
2022/07/21 06:53:54;;;;;;;15.93;13.83;;;;;;;20.06;100.00;101838.53;5001400;28;20244;-66
2022/07/21 06:56:20;;;;;;;16.17;14.40;;;;;;;20.08;100.00;101809.19;4996612;28;20892;-65
2022/07/21 06:58:46;;;;;;;16.70;14.20;;;;;;;20.46;100.00;101828.78;4999191;28;20232;-65
2022/07/21 07:01:13;;;;;;;23.50;20.27;;;;;;;20.07;100.00;101828.47;4997919;28;20248;-65
2022/07/21 07:03:39;;;;;;;19.07;17.17;;;;;;;20.25;100.00;101824.75;4997199;28;20448;-65
2022/07/21 07:06:05;;;;;;;19.77;17.23;;;;;;;20.08;100.00;101835.59;4993678;28;20453;-65
2022/07/21 07:08:31;;;;;;;22.87;17.60;;;;;;;19.84;100.00;101827.41;4998935;28;20452;-65
2022/07/21 07:10:57;;;;;;;20.47;16.43;;;;;;;20.04;100.00;101828.94;4999453;28;20626;-64
2022/07/21 07:13:22;;;;;;;19.97;16.63;;;;;;;19.86;100.00;101813.56;5000974;28;20432;-65
2022/07/21 07:15:48;;;;;;;20.73;18.57;;;;;;;19.57;100.00;101791.63;5002541;28;20642;-65
2022/07/21 07:18:13;;;;;;;21.27;18.23;;;;;;;19.90;100.00;101820.19;5001613;28;20687;-65
2022/07/21 07:20:39;;;;;;;22.30;19.37;;;;;;;19.94;100.00;101829.56;4999544;28;20733;-65
2022/07/21 07:23:04;;;;;;;23.60;18.43;;;;;;;19.61;100.00;101797.41;4999849;28;20205;-64
2022/07/21 07:25:30;;;;;;;20.60;17.13;;;;;;;19.94;100.00;101821.38;4999293;28;20251;-64
2022/07/21 07:27:56;;;;;;;21.87;19.13;;;;;;;19.91;100.00;101800.06;4996426;28;20215;-64
2022/07/21 07:30:23;;;;;;;21.87;19.70;;;;;;;19.68;100.00;101811.78;4992535;28;20820;-65
2022/07/21 07:32:48;;;;;;;20.27;17.57;;;;;;;20.04;100.00;101818.88;4995241;28;20491;-65
2022/07/21 07:35:15;;;;;;;20.50;18.27;;;;;;;20.15;100.00;101811.75;4995949;28;20452;-65
2022/07/21 07:37:42;;;;;;;21.20;18.77;;;;;;;19.86;100.00;101802.69;4998881;28;20395;-65
2022/07/21 07:40:12;;;;;;;20.67;18.47;;;;;;;19.78;100.00;101797.59;4998060;28;20825;-65
2022/07/21 07:42:38;;;;;;;18.87;16.90;;;;;;;20.25;100.00;101816.59;5000742;28;20466;-65
2022/07/21 07:45:06;;;;;;;21.47;17.30;;;;;;;20.25;100.00;101822.03;5001195;28;20440;-65
2022/07/21 07:47:31;;;;;;;21.13;18.83;;;;;;;20.18;100.00;101824.91;5000876;28;20455;-65
2022/07/21 07:49:57;;;;;;;18.90;16.77;;;;;;;20.16;100.00;101828.94;5000604;28;20444;-65
2022/07/21 07:52:23;;;;;;;21.70;19.17;;;;;;;20.21;100.00;101831.78;4999840;28;20252;-65
2022/07/21 07:54:48;;;;;;;21.00;16.80;;;;;;;20.12;100.00;101830.47;4997818;28;20211;-65
2022/07/21 07:57:14;;;;;;;19.87;17.03;;;;;;;20.06;100.00;101835.81;4999939;28;20352;-65
2022/07/21 07:59:39;;;;;;;19.10;17.10;;;;;;;20.03;100.00;101839.00;5001205;28;20266;-65
2022/07/21 08:02:05;;;;;;;16.80;15.10;;;;;;;19.93;100.00;101829.78;4998341;28;20255;-65
2022/07/21 08:04:31;;;;;;;18.40;16.57;;;;;;;19.90;100.00;101830.25;4999744;28;20193;-65
2022/07/21 08:06:56;;;;;;;19.50;17.50;;;;;;;19.63;100.00;101785.25;5001363;28;20240;-65
2022/07/21 08:09:22;;;;;;;18.90;16.93;;;;;;;20.01;100.00;101835.69;4998948;28;20444;-65
2022/07/21 08:11:47;;;;;;;19.90;17.90;;;;;;;19.80;100.00;101823.50;5000791;28;20178;-65
2022/07/21 08:14:14;;;;;;;18.40;16.27;;;;;;;19.88;100.00;101838.66;4999040;28;20192;-65
2022/07/21 08:16:40;;;;;;;19.87;17.27;;;;;;;19.83;100.00;101833.09;4999416;28;20220;-65
2022/07/21 08:19:06;;;;;;;23.40;19.60;;;;;;;19.67;100.00;101847.41;4999552;28;20971;-66
2022/07/21 08:21:33;;;;;;;20.37;18.33;;;;;;;19.80;100.00;101847.19;5000689;28;20276;-66
2022/07/21 08:23:59;;;;;;;23.70;19.20;;;;;;;19.14;100.00;101749.22;4999272;28;20193;-65
2022/07/21 08:26:24;;;;;;;18.80;16.90;;;;;;;19.81;100.00;101843.38;4997385;28;20539;-66
2022/07/21 08:28:50;;;;;;;21.27;18.87;;;;;;;19.61;100.00;101849.13;4999583;28;20202;-66
2022/07/21 08:31:16;;;;;;;20.03;18.00;;;;;;;19.73;100.00;101843.72;4996245;28;20185;-66
2022/07/21 08:33:41;;;;;;;17.60;15.87;;;;;;;19.84;100.00;101832.03;4989617;28;20200;-66
2022/07/21 08:36:07;;;;;;;20.80;18.70;;;;;;;19.62;100.00;101846.19;4990456;28;20197;-65
2022/07/21 08:38:32;;;;;;;19.10;17.20;;;;;;;19.63;100.00;101831.50;4988348;28;20216;-65
2022/07/21 08:40:58;;;;;;;18.47;16.57;;;;;;;19.82;100.00;101842.34;4995906;28;20201;-65
2022/07/21 08:43:24;;;;;;;20.53;16.20;;;;;;;19.67;100.00;101784.78;4998549;28;20200;-65
2022/07/21 08:45:49;;;;;;;17.37;15.67;;;;;;;19.78;100.00;101809.28;4997685;28;20204;-66
2022/07/21 08:48:19;;;;;;;20.03;17.93;;;;;;;19.92;100.00;101836.28;4998934;28;20456;-66
2022/07/21 08:50:44;;;;;;;19.07;17.17;;;;;;;19.68;100.00;101835.47;4998560;28;20558;-67
2022/07/21 08:53:10;;;;;;;20.00;17.80;;;;;;;19.28;100.00;101762.63;4999186;28;20486;-66
2022/07/21 08:55:39;;;;;;;20.20;17.70;;;;;;;19.70;100.00;101838.75;4997570;28;20213;-66
2022/07/21 08:58:11;;;;;;;19.50;17.57;;;;;;;19.62;100.00;101815.44;5004055;28;20205;-66
2022/07/21 09:00:44;;;;;;;18.13;16.37;;;;;;;19.75;100.00;101833.44;5003849;28;20428;-66
2022/07/21 09:03:14;;;;;;;20.03;18.03;;;;;;;19.48;100.00;101838.47;5003516;28;20471;-66
2022/07/21 09:05:42;;;;;;;19.07;17.07;;;;;;;19.58;100.00;101842.25;5000300;28;20440;-67
2022/07/21 09:08:07;;;;;;;19.83;17.83;;;;;;;19.56;100.00;101825.34;5000696;28;20470;-67
2022/07/21 09:10:33;;;;;;;20.57;16.73;;;;;;;19.68;100.00;101805.53;4999476;28;20452;-67
2022/07/21 09:13:05;;;;;;;18.07;16.20;;;;;;;20.02;100.00;101848.25;5002775;28;20189;-67
2022/07/21 09:15:32;;;;;;;19.10;17.10;;;;;;;20.00;100.00;101801.38;5002589;28;20425;-65
2022/07/21 09:18:13;;;;;;;18.00;16.27;;;;;;;20.42;100.00;101847.47;4997530;28;20468;-65
2022/07/21 09:20:47;;;;;;;18.77;16.77;;;;;;;20.06;100.00;101840.44;5003470;28;20442;-66
2022/07/21 09:23:15;;;;;;;19.87;17.97;;;;;;;20.28;100.00;101837.94;5004630;28;20464;-66
2022/07/21 09:25:52;;;;;;;18.87;16.47;;;;;;;20.38;100.00;101835.41;5001307;28;20451;-66
2022/07/21 09:28:23;;;;;;;18.40;16.50;;;;;;;20.12;100.00;101830.47;5001171;28;20701;-65
2022/07/21 09:30:58;;;;;;;19.70;17.70;;;;;;;20.36;100.00;101828.53;5004619;28;20420;-65
2022/07/21 09:33:31;;;;;;;19.00;17.20;;;;;;;20.39;100.00;101818.00;5001244;28;20519;-66
2022/07/21 09:35:59;;;;;;;17.70;15.93;;;;;;;20.50;100.00;101817.13;4998127;28;20471;-65
2022/07/21 09:38:26;;;;;;;19.77;17.77;;;;;;;20.42;100.00;101814.78;4997107;28;20489;-66
2022/07/21 09:40:52;;;;;;;18.40;16.50;;;;;;;20.09;100.00;101759.06;5002985;28;20448;-66
2022/07/21 09:43:42;;;;;;;19.80;16.43;;;;;;;20.39;100.00;101789.91;4997622;28;20487;-66
2022/07/21 09:46:25;;;;;;;18.33;15.77;;;;;;;20.73;100.00;101794.44;4997797;28;20193;-66
2022/07/21 09:48:56;;;;;;;15.83;14.23;;;;;;;20.56;100.00;101809.91;4998583;28;20534;-66
2022/07/21 09:51:37;;;;;;;16.23;14.20;;;;;;;20.70;100.00;101789.47;5001538;28;20432;-66
2022/07/21 09:54:08;;;;;;;15.27;13.83;;;;;;;20.57;100.00;101795.25;5002493;28;20519;-65
2022/07/21 09:56:44;;;;;;;16.47;14.83;;;;;;;20.61;100.00;101763.69;4991931;28;20440;-66
2022/07/21 09:59:11;;;;;;;14.43;13.13;;;;;;;20.63;100.00;101786.09;4999604;28;20467;-66
2022/07/21 10:01:38;;;;;;;15.37;13.87;;;;;;;20.35;100.00;101745.97;4994416;28;20471;-66
2022/07/21 10:04:05;;;;;;;17.07;15.27;;;;;;;20.49;100.00;101792.88;4998021;28;20874;-65
2022/07/21 10:06:33;;;;;;;16.30;14.60;;;;;;;20.45;100.00;101797.13;5000272;28;20466;-66
2022/07/21 10:09:00;;;;;;;14.57;13.17;;;;;;;20.64;100.00;101792.38;4999043;28;20980;-66
2022/07/21 10:11:27;;;;;;;16.60;14.90;;;;;;;20.16;100.00;101745.31;4997422;28;20443;-66
2022/07/21 10:13:54;;;;;;;16.90;15.17;;;;;;;20.33;100.00;101767.19;4998862;28;20437;-66
2022/07/21 10:16:20;;;;;;;19.60;13.90;;;;;;;20.65;100.00;101785.84;4996601;28;20444;-66
2022/07/21 10:19:14;;;;;;;14.53;13.00;;;;;;;20.57;100.00;101784.34;4999905;28;20978;-66
2022/07/21 10:22:09;;;;;;;14.63;13.13;;;;;;;20.00;100.00;101714.22;4995586;28;20222;-66
2022/07/21 10:24:35;;;;;;;14.90;13.50;;;;;;;20.49;100.00;101796.41;5002866;28;20511;-66
2022/07/21 10:27:09;;;;;;;13.33;12.03;;;;;;;20.66;100.00;101785.59;5001646;28;20876;-66
2022/07/21 10:30:03;;;;;;;13.30;12.00;;;;;;;20.79;100.00;101787.19;5002367;28;20874;-66
2022/07/21 10:32:36;;;;;;;13.83;12.40;;;;;;;20.54;100.00;101791.09;4999421;28;20933;-66
2022/07/21 10:35:25;;;;;;;13.70;12.40;;;;;;;20.60;100.00;101783.00;5002962;28;20418;-66
2022/07/21 10:37:52;;;;;;;11.70;10.53;;;;;;;20.79;100.00;101800.81;5003158;28;20464;-66
2022/07/21 10:40:20;;;;;;;15.57;13.87;;;;;;;20.60;100.00;101800.22;5003785;28;20463;-65
2022/07/21 10:43:06;;;;;;;14.60;13.10;;;;;;;20.48;100.00;101802.09;5003528;28;20292;-66
2022/07/21 10:45:36;;;;;;;19.10;17.17;;;;;;;20.34;100.00;101763.41;4986595;28;20439;-68
2022/07/21 10:48:04;;;;;;;18.23;16.40;;;;;;;20.24;100.00;101757.75;4999287;28;20448;-68
2022/07/21 10:50:31;;;;;;;15.77;14.10;;;;;;;20.60;100.00;101753.03;5000571;28;20515;-68
2022/07/21 10:52:57;;;;;;;17.83;15.93;;;;;;;20.45;100.00;101784.34;5001737;28;20423;-67
2022/07/21 10:55:28;;;;;;;15.83;14.23;;;;;;;20.62;100.00;101778.97;5000314;28;20780;-68
2022/07/21 10:58:13;;;;;;;14.37;12.97;;;;;;;20.78;100.00;101788.28;5001460;28;20922;-67
2022/07/21 11:00:50;;;;;;;17.13;14.70;;;;;;;20.60;100.00;101786.56;5000167;28;20435;-67
2022/07/21 11:03:20;;;;;;;17.70;15.77;;;;;;;20.24;100.00;101744.13;5000633;28;20467;-67
2022/07/21 11:06:27;;;;;;;17.50;15.80;;;;;;;20.55;100.00;101797.38;5000138;28;20504;-67
2022/07/21 11:09:04;;;;;;;16.73;15.03;;;;;;;20.67;100.00;101789.16;4999862;28;20450;-66
2022/07/21 11:12:03;;;;;;;17.57;15.97;;;;;;;20.66;100.00;101791.06;5001023;28;20454;-67
2022/07/21 11:14:41;;;;;;;16.30;14.60;;;;;;;20.68;100.00;101728.91;5001506;28;20460;-67
2022/07/21 11:17:09;;;;;;;17.43;15.73;;;;;;;20.98;100.00;101783.19;4995846;28;20984;-66
2022/07/21 11:19:49;;;;;;;18.63;16.83;;;;;;;21.02;100.00;101788.97;4996135;28;20440;-66
2022/07/21 11:22:26;;;;;;;16.47;14.87;;;;;;;21.07;100.00;101788.25;5001762;28;21037;-66
2022/07/21 11:24:57;;;;;;;18.93;16.97;;;;;;;20.51;100.00;101752.53;4995463;28;20936;-66
2022/07/21 11:27:25;;;;;;;17.50;15.80;;;;;;;20.77;100.00;101775.69;4996050;28;20472;-66
2022/07/21 11:29:55;;;;;;;19.47;17.57;;;;;;;20.77;100.00;101762.06;4997422;28;20439;-67
2022/07/21 11:32:22;;;;;;;18.17;16.40;;;;;;;20.90;100.00;101775.41;5002252;28;20434;-66
2022/07/21 11:34:55;;;;;;;19.73;17.83;;;;;;;20.67;100.00;101780.97;4994280;28;20460;-66
2022/07/21 11:37:42;;;;;;;20.27;16.80;;;;;;;20.33;100.00;101704.53;4997272;28;20462;-66
2022/07/21 11:40:15;;;;;;;17.43;15.50;;;;;;;20.93;100.00;101774.91;4997341;28;20453;-66
2022/07/21 11:42:43;;;;;;;18.07;16.37;;;;;;;20.79;100.00;101778.19;4995588;28;20473;-65
2022/07/21 11:45:10;;;;;;;16.63;15.13;;;;;;;20.87;100.00;101769.63;4999091;28;20440;-65
2022/07/21 11:47:36;;;;;;;15.97;14.40;;;;;;;20.98;100.00;101774.19;4995526;28;20507;-65
2022/07/21 11:50:06;;;;;;;15.63;14.10;;;;;;;21.01;100.00;101759.25;4991148;28;20562;-65
2022/07/21 11:52:36;;;;;;;13.30;11.93;;;;;;;21.29;100.00;101780.16;4999982;28;20468;-65
2022/07/21 11:55:04;;;;;;;14.20;12.87;;;;;;;21.36;100.00;101778.97;4996087;28;20881;-65
2022/07/21 11:57:30;;;;;;;15.07;13.57;;;;;;;21.46;100.00;101764.63;4991592;28;20806;-66
2022/07/21 11:59:58;;;;;;;13.00;11.80;;;;;;;21.48;100.00;101765.22;5000887;28;20442;-66
2022/07/21 12:02:26;;;;;;;11.50;10.30;;;;;;;21.35;100.00;101760.91;4998451;28;20224;-65
2022/07/21 12:04:54;;;;;;;11.33;10.17;;;;;;;21.33;100.00;101722.13;5001272;28;20441;-65
2022/07/21 12:07:39;;;;;;;9.57;8.67;;;;;;;21.31;100.00;101732.44;4998156;28;20501;-65
2022/07/21 12:10:29;;;;;;;11.60;10.50;;;;;;;21.23;100.00;101738.31;4997154;28;20475;-65
2022/07/21 12:13:04;;;;;;;10.07;9.17;;;;;;;21.16;100.00;101697.56;4996262;28;20852;-65
2022/07/21 12:15:41;;;;;;;10.30;9.30;;;;;;;21.44;100.00;101729.41;4995625;28;20436;-65
2022/07/21 12:18:09;;;;;;;8.40;7.70;;;;;;;21.53;100.00;101726.28;4991302;28;20475;-65
2022/07/21 12:20:40;;;;;;;10.93;9.47;;;;;;;21.70;100.00;101726.22;4999429;28;20448;-65
2022/07/21 12:23:22;;;;;;;9.27;8.37;;;;;;;21.86;100.00;101725.34;5001672;28;20471;-66
2022/07/21 12:25:48;;;;;;;12.30;9.80;;;;;;;21.78;100.00;101726.59;4999553;28;21035;-65
2022/07/21 12:28:13;;;;;;;11.37;10.20;;;;;;;21.59;100.00;101715.16;4997096;28;20468;-65
2022/07/21 12:30:47;;;;;;;13.20;11.90;;;;;;;21.73;100.00;101715.63;5001763;28;20178;-66
2022/07/21 12:33:27;;;;;;;12.03;10.87;;;;;;;21.69;100.00;101689.06;4992440;28;20206;-66
2022/07/21 12:36:07;;;;;;;10.00;9.07;;;;;;;21.98;100.00;101727.97;4993295;28;20864;-66
2022/07/21 12:38:41;;;;;;;10.67;9.70;;;;;;;21.95;100.00;101742.13;5001902;28;20455;-66
2022/07/21 12:41:09;;;;;;;16.67;15.07;;;;;;;21.66;100.00;101737.63;4998364;28;20424;-66
2022/07/21 12:43:35;;;;;;;19.03;17.13;;;;;;;20.83;100.00;101668.41;4998058;28;21006;-66
2022/07/21 12:46:08;;;;;;;17.90;16.10;;;;;;;21.34;100.00;101739.31;4994315;28;20444;-66
2022/07/21 12:48:36;;;;;;;17.43;15.77;;;;;;;21.24;100.00;101734.53;5008327;28;20558;-66
2022/07/21 12:51:14;;;;;;;19.57;17.57;;;;;;;21.21;100.00;101746.75;4997094;28;20458;-65
2022/07/21 12:53:47;;;;;;;19.43;17.43;;;;;;;20.98;100.00;101712.28;4997062;28;20990;-66
2022/07/21 12:56:19;;;;;;;22.40;20.10;;;;;;;20.92;100.00;101729.63;4993854;28;20455;-66
2022/07/21 12:58:45;;;;;;;17.80;16.03;;;;;;;21.16;100.00;101737.66;5004958;28;20543;-66
2022/07/21 13:01:11;;;;;;;18.43;16.73;;;;;;;21.10;100.00;101736.75;4999633;28;20456;-66
2022/07/21 13:03:38;;;;;;;17.53;15.93;;;;;;;20.95;100.00;101710.06;4999150;28;20427;-66
2022/07/21 13:06:04;;;;;;;18.90;17.10;;;;;;;21.22;100.00;101742.94;4999288;28;20799;-66
2022/07/21 13:08:31;;;;;;;20.00;18.00;;;;;;;21.11;100.00;101729.41;4999893;28;20499;-66
2022/07/21 13:10:56;;;;;;;19.20;17.30;;;;;;;21.22;100.00;101726.59;4999428;28;20431;-66
2022/07/21 13:13:22;;;;;;;16.63;15.03;;;;;;;21.30;100.00;101733.53;5000240;28;20459;-66
2022/07/21 13:15:47;;;;;;;18.67;16.83;;;;;;;20.99;100.00;101697.56;5000544;28;20559;-65
2022/07/21 13:18:13;;;;;;;15.47;13.90;;;;;;;21.43;100.00;101729.66;4998285;28;20284;-66
2022/07/21 13:20:38;;;;;;;13.23;12.03;;;;;;;21.48;100.00;101723.47;4999265;28;20552;-66
2022/07/21 13:23:05;;;;;;;13.33;12.00;;;;;;;21.70;100.00;101724.34;5000292;28;20264;-66
2022/07/21 13:25:30;;;;;;;15.10;13.60;;;;;;;21.80;100.00;101721.72;5000739;28;20181;-66
2022/07/21 13:27:56;;;;;;;17.80;16.00;;;;;;;21.55;100.00;101705.00;4998359;28;20859;-66
2022/07/21 13:30:21;;;;;;;16.73;15.03;;;;;;;21.78;100.00;101728.53;5001217;28;20276;-66
2022/07/21 13:32:46;;;;;;;14.50;13.00;;;;;;;21.82;100.00;101725.03;5004009;28;20200;-66
2022/07/21 13:35:12;;;;;;;17.17;15.37;;;;;;;21.66;100.00;101728.63;5003336;28;20197;-67
2022/07/21 13:37:38;;;;;;;18.80;16.90;;;;;;;21.63;100.00;101720.94;5003361;28;20252;-66
2022/07/21 13:40:05;;;;;;;18.17;15.33;;;;;;;21.59;100.00;101703.44;5002279;28;20421;-66
2022/07/21 13:42:30;;;;;;;15.83;14.30;;;;;;;21.64;100.00;101714.44;5002736;28;20205;-66
2022/07/21 13:44:56;;;;;;;15.73;14.10;;;;;;;21.67;100.00;101714.75;5003048;28;20447;-66
2022/07/21 13:47:21;;;;;;;14.60;13.20;;;;;;;21.57;100.00;101706.41;5004627;28;20197;-66
2022/07/21 13:49:46;;;;;;;15.60;14.03;;;;;;;21.34;100.00;101701.09;5003013;28;20264;-67
2022/07/21 13:52:12;;;;;;;18.53;16.60;;;;;;;21.24;100.00;101696.34;5001706;28;20178;-67
2022/07/21 13:54:38;;;;;;;16.20;14.50;;;;;;;21.51;100.00;101728.41;5002895;28;20188;-67
2022/07/21 13:57:03;;;;;;;20.90;18.90;;;;;;;21.34;100.00;101712.03;5001061;28;20452;-67
2022/07/21 13:59:28;;;;;;;17.00;15.40;;;;;;;21.46;100.00;101750.16;5004482;28;20200;-66
2022/07/21 14:01:55;;;;;;;15.63;14.13;;;;;;;21.43;100.00;101754.22;5003232;28;20212;-66
2022/07/21 14:04:21;;;;;;;16.37;14.77;;;;;;;21.34;100.00;101744.78;5003048;28;20257;-66
2022/07/21 14:06:48;;;;;;;15.03;13.53;;;;;;;21.50;100.00;101775.91;5002145;28;20432;-67
2022/07/21 14:09:14;;;;;;;14.87;13.27;;;;;;;21.43;100.00;101779.59;5002040;28;20413;-66
2022/07/21 14:11:39;;;;;;;15.23;13.63;;;;;;;21.06;100.00;101753.84;5004011;28;20431;-66
2022/07/21 14:14:05;;;;;;;13.53;12.33;;;;;;;21.26;100.00;101795.13;5001467;28;20247;-67
2022/07/21 14:16:31;;;;;;;13.70;12.30;;;;;;;21.02;100.00;101760.88;5002965;28;20728;-66
2022/07/21 14:18:56;;;;;;;14.10;12.70;;;;;;;20.96;100.00;101749.06;5001189;28;20248;-67
2022/07/21 14:21:21;;;;;;;16.97;14.33;;;;;;;21.16;100.00;101784.88;5002399;28;20223;-66
2022/07/21 14:23:47;;;;;;;15.33;13.70;;;;;;;21.26;100.00;101761.56;5002064;28;20185;-67
2022/07/21 14:26:12;;;;;;;14.93;12.33;;;;;;;21.56;100.00;101753.06;5002642;28;20188;-67
2022/07/21 14:28:38;;;;;;;13.83;12.60;;;;;;;21.07;100.00;101644.50;5001598;28;20260;-66
2022/07/21 14:31:03;;;;;;;13.70;12.30;;;;;;;21.71;100.00;101734.16;5015776;28;20178;-68
2022/07/21 14:33:29;;;;;;;14.00;12.60;;;;;;;21.76;100.00;101764.28;5004504;28;20235;-68
2022/07/21 14:35:55;;;;;;;11.10;10.10;;;;;;;21.59;100.00;101741.66;5002010;28;20181;-67
2022/07/21 14:38:21;;;;;;;10.07;9.10;;;;;;;21.71;100.00;101742.34;5001214;28;20465;-67
2022/07/21 14:40:46;;;;;;;10.23;9.33;;;;;;;21.37;100.00;101709.66;5005822;28;20796;-67
2022/07/21 14:43:12;;;;;;;9.90;8.90;;;;;;;21.79;100.00;101784.81;5002514;28;20255;-66
2022/07/21 14:45:38;;;;;;;10.20;9.30;;;;;;;21.64;100.00;101767.13;5001562;28;20236;-66
2022/07/21 14:48:03;;;;;;;9.57;8.67;;;;;;;21.61;100.00;101784.00;5002372;28;20204;-66
2022/07/21 14:50:29;;;;;;;10.23;9.23;;;;;;;21.36;100.00;101775.38;5000628;28;20184;-67
2022/07/21 14:52:55;;;;;;;10.73;9.73;;;;;;;21.19;100.00;101784.38;5001954;28;20188;-66
2022/07/21 14:55:22;;;;;;;10.50;9.50;;;;;;;21.09;100.00;101783.34;4997593;28;20181;-66
2022/07/21 14:57:49;;;;;;;10.63;9.63;;;;;;;21.28;100.00;101784.78;5001025;28;20490;-66
2022/07/21 15:00:15;;;;;;;9.10;8.20;;;;;;;21.12;100.00;101786.44;4997380;28;20457;-66
2022/07/21 15:02:40;;;;;;;10.93;9.67;;;;;;;21.19;100.00;101789.00;4999511;28;20465;-66
2022/07/21 15:05:06;;;;;;;10.60;9.60;;;;;;;21.31;100.00;101775.28;5001776;28;20205;-66
2022/07/21 15:07:31;;;;;;;9.20;8.30;;;;;;;21.50;100.00;101786.81;5001274;28;20227;-66
2022/07/21 15:09:58;;;;;;;9.30;8.30;;;;;;;21.39;100.00;101737.53;5001880;28;20649;-66
2022/07/21 15:12:23;;;;;;;10.27;9.27;;;;;;;21.52;100.00;101771.00;5002858;28;20704;-66
2022/07/21 15:14:49;;;;;;;9.93;9.03;;;;;;;21.49;100.00;101757.84;4999143;28;20483;-66
2022/07/21 15:17:15;;;;;;;10.27;9.37;;;;;;;21.63;100.00;101756.44;5001960;28;20207;-66
2022/07/21 15:19:41;;;;;;;9.33;8.53;;;;;;;21.77;100.00;101771.38;4999758;28;20559;-66
2022/07/21 15:22:07;;;;;;;9.53;8.63;;;;;;;21.79;100.00;101762.97;5001212;28;20463;-66
2022/07/21 15:24:33;;;;;;;10.17;8.83;;;;;;;21.78;100.00;101755.81;5000198;28;20529;-66
2022/07/21 15:26:59;;;;;;;9.90;9.00;;;;;;;21.89;100.00;101749.44;4999169;28;20424;-66
2022/07/21 15:29:24;;;;;;;9.17;8.27;;;;;;;21.74;100.00;101750.03;5002064;28;20467;-66
2022/07/21 15:31:50;;;;;;;11.00;9.90;;;;;;;21.47;100.00;101706.25;4999935;28;20485;-66
2022/07/21 15:34:15;;;;;;;9.50;8.60;;;;;;;21.66;100.00;101758.66;5000909;28;20208;-66
2022/07/21 15:36:41;;;;;;;10.30;9.30;;;;;;;21.58;100.00;101757.19;4999550;28;20185;-66
2022/07/21 15:39:06;;;;;;;9.47;8.67;;;;;;;21.36;100.00;101737.16;4999882;28;20202;-66
2022/07/21 15:41:35;;;;;;;9.93;8.93;;;;;;;21.53;100.00;101770.75;5000475;28;20189;-66
2022/07/21 15:44:01;;;;;;;9.20;8.30;;;;;;;21.26;100.00;101748.72;5001624;28;20701;-65
2022/07/21 15:46:26;;;;;;;10.10;9.17;;;;;;;21.26;100.00;101761.56;5000824;28;20512;-66
2022/07/21 15:48:52;;;;;;;9.60;8.70;;;;;;;21.21;100.00;101767.78;4999533;28;20203;-66
2022/07/21 15:51:17;;;;;;;9.87;8.97;;;;;;;21.18;100.00;101780.00;5000335;28;20180;-66
2022/07/21 15:53:43;;;;;;;10.23;9.33;;;;;;;21.20;100.00;101777.88;4999323;28;20701;-66
2022/07/21 15:56:08;;;;;;;9.53;8.63;;;;;;;21.18;100.00;101768.25;5005800;28;20605;-66
2022/07/21 15:58:34;;;;;;;9.40;8.60;;;;;;;21.19;100.00;101775.38;5000079;28;20574;-66
2022/07/21 16:00:59;;;;;;;9.50;8.60;;;;;;;20.95;100.00;101740.06;4999470;28;20189;-65
2022/07/21 16:03:25;;;;;;;8.73;7.90;;;;;;;20.72;100.00;101721.94;5000866;28;20577;-66
2022/07/21 16:05:51;;;;;;;9.53;8.73;;;;;;;20.42;100.00;101683.97;5000692;28;20185;-65
2022/07/21 16:08:17;;;;;;;8.90;8.00;;;;;;;20.98;100.00;101779.66;5001046;28;20197;-66
2022/07/21 16:10:43;;;;;;;9.47;8.60;;;;;;;20.91;100.00;101770.78;4999546;28;20428;-65
2022/07/21 16:13:08;;;;;;;8.83;8.07;;;;;;;20.92;100.00;101775.19;5000114;28;20177;-66
2022/07/21 16:15:34;;;;;;;8.50;7.23;;;;;;;20.88;100.00;101750.28;4999737;28;20188;-66
2022/07/21 16:17:59;;;;;;;8.20;7.33;;;;;;;21.18;100.00;101776.44;4994569;28;20697;-66
2022/07/21 16:20:29;;;;;;;8.83;7.93;;;;;;;20.86;100.00;101754.31;4993087;28;20202;-65
2022/07/21 16:22:56;;;;;;;8.23;7.33;;;;;;;20.46;100.00;101704.25;4988373;28;20235;-66
2022/07/21 16:25:22;;;;;;;9.83;8.83;;;;;;;20.57;100.00;101713.47;4995329;28;20489;-66
2022/07/21 16:27:49;;;;;;;9.57;8.67;;;;;;;20.82;100.00;101773.06;4998767;28;20451;-66
2022/07/21 16:30:16;;;;;;;9.57;8.67;;;;;;;20.83;100.00;101779.34;4999196;28;20436;-66
2022/07/21 16:32:42;;;;;;;8.23;7.43;;;;;;;20.72;100.00;101762.81;4991221;28;20448;-65
2022/07/21 16:35:14;;;;;;;8.53;7.50;;;;;;;20.83;100.00;101777.47;4999381;28;20878;-65
2022/07/21 16:37:40;;;;;;;7.73;7.03;;;;;;;20.84;100.00;101775.56;4996933;28;20536;-65
2022/07/21 16:40:06;;;;;;;7.73;7.03;;;;;;;20.71;100.00;101763.03;4997646;28;20432;-66
2022/07/21 16:42:31;;;;;;;6.10;5.50;;;;;;;20.79;100.00;101784.47;4996947;28;20261;-65
2022/07/21 16:44:57;;;;;;;5.60;4.83;;;;;;;20.78;100.00;101771.91;4995226;28;20181;-65